Time;durP1;ratioP1;P1;durP2;ratioP2;P2;SDS_P1;SDS_P2;PMS_P1;PMS_P2;Temp;Humidity;BMP_temperature;BMP_pressure;BME280_temperature;BME280_humidity;BME280_pressure;Samples;Min_cycle;Max_cycle;Signal;HPM_P1;HPM_P2
2024/02/04 00:00:21;;;;;;;11.68;2.25;;;;;;;11.08;82.52;101412.63;4947635;28;97665;-71
2024/02/04 00:02:48;;;;;;;13.10;2.33;;;;;;;11.16;82.09;101409.75;4941766;28;98187;-70
2024/02/04 00:05:15;;;;;;;7.88;1.45;;;;;;;11.05;83.01;101417.97;4943780;28;98328;-70
2024/02/04 00:07:42;;;;;;;10.15;2.53;;;;;;;11.49;81.22;101407.94;4945518;28;97317;-69
2024/02/04 00:10:09;;;;;;;12.98;2.40;;;;;;;11.18;82.36;101413.22;4948417;28;99122;-71
2024/02/04 00:12:35;;;;;;;9.05;1.40;;;;;;;11.48;81.27;101422.09;4947099;28;98737;-70
2024/02/04 00:15:04;;;;;;;13.18;1.83;;;;;;;11.21;81.81;101426.38;4944742;28;96855;-70
2024/02/04 00:17:32;;;;;;;14.40;2.13;;;;;;;11.13;82.74;101433.66;4946555;28;97424;-70
2024/02/04 00:19:59;;;;;;;11.48;1.50;;;;;;;11.05;81.66;101403.88;4947395;28;98727;-70
2024/02/04 00:22:28;;;;;;;14.63;2.15;;;;;;;11.34;80.86;101416.31;4949032;28;100149;-70
2024/02/04 00:24:54;;;;;;;15.32;1.88;;;;;;;11.45;80.82;101428.34;4951438;28;97144;-72
2024/02/04 00:27:20;;;;;;;16.60;2.60;;;;;;;11.11;82.04;101409.00;4950404;28;96924;-70
2024/02/04 00:29:47;;;;;;;10.80;1.95;;;;;;;11.42;80.84;101411.69;4948768;28;98892;-70
2024/02/04 00:32:13;;;;;;;12.77;2.00;;;;;;;11.23;82.09;101421.88;4946241;28;98704;-70
2024/02/04 00:34:40;;;;;;;13.07;1.90;;;;;;;11.05;82.43;101414.47;4947870;28;97356;-70
2024/02/04 00:37:06;;;;;;;15.35;2.35;;;;;;;11.43;81.41;101414.25;4946160;28;98343;-70
2024/02/04 00:39:34;;;;;;;16.48;2.83;;;;;;;11.71;79.79;101421.41;4948482;28;98455;-71
2024/02/04 00:42:00;;;;;;;16.90;2.08;;;;;;;11.16;80.12;101417.69;4945480;28;98883;-69
2024/02/04 00:44:27;;;;;;;12.73;2.20;;;;;;;11.08;80.17;101411.75;4946084;28;101134;-69
2024/02/04 00:46:53;;;;;;;16.58;2.60;;;;;;;10.29;82.42;101398.78;4951292;28;96811;-71
2024/02/04 00:49:19;;;;;;;17.77;1.77;;;;;;;10.14;83.36;101398.22;4947434;28;99192;-71
2024/02/04 00:51:46;;;;;;;19.77;2.22;;;;;;;10.08;82.85;101390.47;4951911;28;98820;-68
2024/02/04 00:54:12;;;;;;;15.85;2.03;;;;;;;10.19;83.50;101401.66;4941439;28;97245;-69
2024/02/04 00:56:40;;;;;;;15.15;1.70;;;;;;;10.10;82.79;101412.44;4945360;28;97172;-69
2024/02/04 00:59:06;;;;;;;14.95;2.53;;;;;;;10.45;81.56;101415.13;4944077;28;97949;-69
2024/02/04 01:01:32;;;;;;;21.05;2.47;;;;;;;10.51;81.17;101399.09;4949369;28;98897;-69
2024/02/04 01:03:59;;;;;;;10.60;1.77;;;;;;;10.44;80.68;101404.59;4947218;28;97196;-70
2024/02/04 01:06:25;;;;;;;14.88;2.28;;;;;;;10.24;81.29;101405.94;4949854;28;97187;-70
2024/02/04 01:08:52;;;;;;;16.27;2.13;;;;;;;10.60;80.55;101401.53;4952061;28;102106;-71
2024/02/04 01:11:18;;;;;;;37.47;5.88;;;;;;;10.42;80.82;101403.78;4947947;28;98801;-70
2024/02/04 01:13:46;;;;;;;23.50;2.60;;;;;;;10.57;79.54;101400.72;4948561;28;96862;-70
2024/02/04 01:16:12;;;;;;;17.88;2.95;;;;;;;10.46;80.07;101387.78;4950973;28;96786;-70
2024/02/04 01:18:38;;;;;;;20.55;2.85;;;;;;;10.27;80.71;101381.22;4949476;28;97776;-69
2024/02/04 01:21:05;;;;;;;24.85;2.70;;;;;;;9.85;81.86;101393.59;4949609;28;98894;-70
2024/02/04 01:23:32;;;;;;;20.63;2.78;;;;;;;9.95;82.92;101398.66;4951208;28;98930;-69
2024/02/04 01:25:58;;;;;;;18.08;2.67;;;;;;;10.16;82.20;101409.66;4948061;28;98614;-70
2024/02/04 01:28:24;;;;;;;14.65;2.83;;;;;;;10.15;82.40;101411.41;4953599;28;99458;-70
2024/02/04 01:30:52;;;;;;;22.60;4.18;;;;;;;10.22;81.86;101412.16;4948495;28;98760;-69
2024/02/04 01:33:18;;;;;;;28.88;3.15;;;;;;;10.41;81.87;101412.59;4949655;28;96880;-70
2024/02/04 01:35:45;;;;;;;16.52;2.53;;;;;;;10.16;82.78;101417.56;4947390;28;96857;-70
2024/02/04 01:38:11;;;;;;;18.10;2.17;;;;;;;10.22;82.58;101417.44;4951095;28;99146;-70
2024/02/04 01:40:37;;;;;;;16.45;2.13;;;;;;;10.48;81.27;101399.22;4949096;28;99072;-70
2024/02/04 01:43:04;;;;;;;18.85;2.50;;;;;;;10.44;81.55;101404.59;4948396;28;96826;-70
2024/02/04 01:45:31;;;;;;;15.02;1.80;;;;;;;9.72;84.04;101406.22;4949599;28;97140;-70
2024/02/04 01:47:59;;;;;;;13.07;1.80;;;;;;;10.08;84.01;101398.38;4945690;28;100455;-70
2024/02/04 01:50:26;;;;;;;14.02;1.85;;;;;;;10.16;83.74;101401.72;4947331;28;98748;-70
2024/02/04 01:52:53;;;;;;;23.38;2.50;;;;;;;9.66;85.12;101401.06;4942864;28;96814;-70
2024/02/04 01:55:20;;;;;;;19.80;2.78;;;;;;;9.41;87.25;101400.72;4943714;28;97056;-69
2024/02/04 01:57:49;;;;;;;12.27;1.83;;;;;;;9.52;87.78;101401.34;4943918;28;101789;-70
2024/02/04 02:00:17;;;;;;;16.10;2.22;;;;;;;9.55;87.38;101392.50;4944966;28;97617;-69
2024/02/04 02:02:47;;;;;;;16.45;2.20;;;;;;;9.50;88.22;101389.97;4945863;28;97525;-70
2024/02/04 02:05:15;;;;;;;13.63;2.63;;;;;;;9.80;86.89;101396.34;4944666;28;96862;-71
2024/02/04 02:07:43;;;;;;;16.10;2.35;;;;;;;9.81;87.03;101395.47;4946987;28;102286;-71
2024/02/04 02:10:10;;;;;;;15.30;2.28;;;;;;;9.62;87.75;101404.69;4949120;28;99050;-71
2024/02/04 02:12:40;;;;;;;16.27;2.15;;;;;;;9.57;88.06;101398.63;4944862;28;97294;-71
2024/02/04 02:15:15;;;;;;;15.30;2.58;;;;;;;9.62;87.75;101391.47;4952762;28;98050;-71
2024/02/04 02:17:52;;;;;;;6.88;1.48;;;;;;;9.31;89.15;101388.63;4947054;28;99142;-70
2024/02/04 02:20:24;;;;;;;17.85;2.63;;;;;;;9.59;88.08;101365.16;4947405;28;98130;-71
2024/02/04 02:22:53;;;;;;;18.63;2.13;;;;;;;9.51;88.68;101356.56;4948771;28;97617;-71
2024/02/04 02:25:22;;;;;;;17.92;2.85;;;;;;;9.54;88.00;101362.63;4952670;28;96741;-71
2024/02/04 02:27:49;;;;;;;15.40;2.15;;;;;;;9.63;87.58;101366.84;4945087;28;99079;-71
2024/02/04 02:30:16;;;;;;;21.38;2.78;;;;;;;9.64;87.08;101373.84;4950574;28;98840;-71
2024/02/04 02:32:43;;;;;;;17.80;2.13;;;;;;;9.65;87.76;101388.75;4944435;28;97229;-71
2024/02/04 02:35:10;;;;;;;17.60;2.38;;;;;;;9.84;86.76;101384.84;4945382;28;97277;-71
2024/02/04 02:37:44;;;;;;;17.23;2.58;;;;;;;9.88;85.99;101375.06;4950401;28;98881;-71
2024/02/04 02:40:17;;;;;;;13.07;2.47;;;;;;;9.75;86.71;101371.84;4950901;28;99332;-70
2024/02/04 02:42:47;;;;;;;13.75;1.65;;;;;;;9.58;87.93;101374.00;4952908;28;96717;-69
2024/02/04 02:45:15;;;;;;;16.98;2.40;;;;;;;9.65;87.87;101378.22;4945817;28;99425;-70
2024/02/04 02:47:42;;;;;;;15.18;1.90;;;;;;;9.75;87.46;101382.41;4948772;28;98864;-69
2024/02/04 02:50:09;;;;;;;11.15;2.30;;;;;;;9.72;87.21;101387.72;4949786;28;98988;-69
2024/02/04 02:52:36;;;;;;;20.83;2.45;;;;;;;9.77;87.04;101388.53;4946083;28;96771;-70
2024/02/04 02:55:02;;;;;;;17.85;1.90;;;;;;;9.46;87.83;101390.06;4944832;28;96826;-69
2024/02/04 02:57:28;;;;;;;12.60;2.20;;;;;;;9.64;88.23;101391.47;4947350;28;99249;-70
2024/02/04 02:59:56;;;;;;;16.60;2.47;;;;;;;9.59;88.35;101379.22;4943954;28;99400;-70
2024/02/04 03:02:22;;;;;;;15.82;1.55;;;;;;;9.32;89.82;101385.06;4941987;28;98571;-71
2024/02/04 03:04:48;;;;;;;8.60;1.75;;;;;;;9.41;89.72;101376.09;4948572;28;97031;-70
2024/02/04 03:07:15;;;;;;;19.38;2.03;;;;;;;9.56;89.67;101379.28;4943012;28;99245;-70
2024/02/04 03:09:41;;;;;;;12.88;2.38;;;;;;;9.60;90.16;101380.97;4946116;28;99094;-70
2024/02/04 03:12:08;;;;;;;9.73;1.65;;;;;;;9.27;92.12;101375.50;4944227;28;97190;-70
2024/02/04 03:14:34;;;;;;;14.95;2.20;;;;;;;9.23;93.09;101377.34;4950274;28;96802;-71
2024/02/04 03:17:02;;;;;;;17.38;2.72;;;;;;;9.66;91.22;101374.66;4945814;28;98951;-70
2024/02/04 03:19:28;;;;;;;17.08;2.72;;;;;;;9.86;90.04;101375.09;4946752;28;98789;-70
2024/02/04 03:21:54;;;;;;;18.52;3.05;;;;;;;9.96;89.15;101379.28;4945169;28;97415;-70
2024/02/04 03:24:21;;;;;;;16.85;2.67;;;;;;;9.97;88.71;101378.38;4944954;28;96773;-70
2024/02/04 03:26:47;;;;;;;16.30;2.67;;;;;;;9.84;90.20;101374.28;4943961;28;99097;-69
2024/02/04 03:29:13;;;;;;;13.13;2.25;;;;;;;9.89;89.91;101374.19;4945194;28;99141;-69
2024/02/04 03:31:40;;;;;;;9.88;2.47;;;;;;;9.79;90.41;101359.44;4946183;28;98772;-69
2024/02/04 03:34:07;;;;;;;14.85;2.17;;;;;;;9.31;92.88;101358.75;4945127;28;98007;-70
2024/02/04 03:36:34;;;;;;;16.52;2.10;;;;;;;9.10;93.19;101355.63;4940814;28;100492;-70
2024/02/04 03:39:00;;;;;;;10.18;2.30;;;;;;;9.39;92.81;101355.03;4946269;28;97679;-70
2024/02/04 03:41:26;;;;;;;13.85;2.17;;;;;;;9.38;92.88;101357.72;4946080;28;101273;-70
2024/02/04 03:43:55;;;;;;;11.32;2.00;;;;;;;9.14;93.14;101353.78;4942004;28;96748;-70
2024/02/04 03:46:21;;;;;;;9.05;2.58;;;;;;;9.52;92.31;101351.22;4945009;28;98949;-70
2024/02/04 03:48:47;;;;;;;13.13;1.85;;;;;;;9.01;93.66;101349.66;4946855;28;98917;-70
2024/02/04 03:51:19;;;;;;;7.45;1.90;;;;;;;9.20;93.94;101349.25;4944986;28;98508;-70
2024/02/04 03:53:45;;;;;;;11.52;2.72;;;;;;;9.46;92.65;101348.72;4942147;28;98418;-70
2024/02/04 03:56:12;;;;;;;9.32;2.60;;;;;;;9.62;91.28;101340.47;4944809;28;98996;-70
2024/02/04 03:58:38;;;;;;;11.50;2.20;;;;;;;9.51;91.66;101344.25;4947849;28;99117;-70
2024/02/04 04:01:05;;;;;;;17.02;2.80;;;;;;;9.55;91.56;101334.47;4944904;28;96963;-70
2024/02/04 04:03:31;;;;;;;14.18;2.55;;;;;;;9.20;92.88;101340.47;4944803;28;97028;-70
2024/02/04 04:05:57;;;;;;;13.20;2.70;;;;;;;9.37;92.43;101334.88;4948345;28;98863;-70
2024/02/04 04:08:25;;;;;;;10.73;2.08;;;;;;;9.15;92.94;101348.50;4946558;28;99387;-70
2024/02/04 04:10:51;;;;;;;11.05;2.20;;;;;;;9.23;92.60;101334.28;4946859;28;96956;-70
2024/02/04 04:13:18;;;;;;;7.53;2.30;;;;;;;9.44;91.51;101333.84;4941361;28;98768;-70
2024/02/04 04:15:44;;;;;;;11.18;2.50;;;;;;;9.49;91.00;101324.06;4945352;28;99118;-70
2024/02/04 04:18:12;;;;;;;14.13;2.47;;;;;;;9.66;90.13;101329.81;4947260;28;99753;-70
2024/02/04 04:20:38;;;;;;;10.40;1.65;;;;;;;9.56;89.99;101315.97;4945970;28;96835;-70
2024/02/04 04:23:05;;;;;;;9.85;2.08;;;;;;;9.41;90.55;101310.16;4943008;28;97057;-70
2024/02/04 04:25:33;;;;;;;14.32;2.72;;;;;;;9.70;89.07;101315.66;4947955;28;98897;-70
2024/02/04 04:27:59;;;;;;;15.10;2.38;;;;;;;9.40;90.07;101308.41;4949704;28;98851;-69
2024/02/04 04:30:25;;;;;;;16.40;3.72;;;;;;;9.27;91.03;101302.53;4949385;28;99619;-69
2024/02/04 04:32:52;;;;;;;12.63;2.60;;;;;;;9.08;91.75;101302.06;4945766;28;96837;-70
2024/02/04 04:35:18;;;;;;;9.60;2.33;;;;;;;9.22;91.03;101298.25;4946438;28;100155;-69
2024/02/04 04:37:45;;;;;;;11.43;1.88;;;;;;;9.12;90.74;101300.25;4944275;28;98913;-69
2024/02/04 04:40:12;;;;;;;7.72;1.60;;;;;;;8.73;92.62;101309.78;4945797;28;97363;-69
2024/02/04 04:42:40;;;;;;;10.80;1.80;;;;;;;9.25;91.38;101314.91;4945637;28;97154;-70
2024/02/04 04:45:08;;;;;;;16.33;2.53;;;;;;;9.17;89.95;101301.88;4946493;28;98863;-70
2024/02/04 04:47:35;;;;;;;11.55;2.25;;;;;;;9.12;90.69;101301.06;4948988;28;98996;-70
2024/02/04 04:50:01;;;;;;;7.05;1.63;;;;;;;9.17;89.64;101301.00;4941941;28;99128;-70
2024/02/04 04:52:27;;;;;;;10.80;2.33;;;;;;;9.15;89.71;101298.41;4947432;28;96859;-70
2024/02/04 04:54:54;;;;;;;12.13;1.80;;;;;;;8.96;91.41;101293.53;4950236;28;98841;-70
2024/02/04 04:57:20;;;;;;;8.20;2.15;;;;;;;9.13;89.86;101287.00;4944515;28;98830;-70
2024/02/04 04:59:47;;;;;;;9.00;1.75;;;;;;;9.23;88.93;101284.19;4943156;28;97782;-71
2024/02/04 05:02:14;;;;;;;8.45;1.48;;;;;;;9.45;88.19;101278.38;4937134;28;97735;-69
2024/02/04 05:04:43;;;;;;;14.60;2.10;;;;;;;9.46;87.07;101274.84;4945470;28;99024;-70
2024/02/04 05:07:09;;;;;;;7.57;1.45;;;;;;;9.24;87.81;101270.97;4949525;28;99394;-69
2024/02/04 05:09:36;;;;;;;7.75;1.42;;;;;;;8.78;90.44;101271.06;4944068;28;98925;-69
2024/02/04 05:12:03;;;;;;;10.15;1.73;;;;;;;8.85;90.38;101267.41;4951150;28;97590;-69
2024/02/04 05:14:29;;;;;;;10.63;1.60;;;;;;;8.65;91.69;101265.16;4950428;28;98901;-69
2024/02/04 05:16:57;;;;;;;10.57;2.67;;;;;;;8.82;90.58;101270.09;4950439;28;98859;-69
2024/02/04 05:19:23;;;;;;;11.20;2.60;;;;;;;8.85;90.14;101267.41;4943780;28;96890;-69
2024/02/04 05:21:50;;;;;;;10.10;1.90;;;;;;;8.49;92.22;101265.47;4941371;28;99009;-69
2024/02/04 05:24:16;;;;;;;6.38;1.60;;;;;;;8.65;91.43;101269.56;4946593;28;97990;-69
2024/02/04 05:26:42;;;;;;;7.13;1.73;;;;;;;8.65;91.63;101259.03;4946451;28;99459;-68
2024/02/04 05:29:09;;;;;;;9.73;1.70;;;;;;;8.24;93.43;101258.00;4949652;28;96794;-69
2024/02/04 05:31:41;;;;;;;8.27;2.58;;;;;;;8.66;92.24;101258.13;4942337;28;96758;-69
2024/02/04 05:34:09;;;;;;;8.52;1.70;;;;;;;9.05;89.60;101252.03;4943377;28;99224;-69
2024/02/04 05:36:35;;;;;;;12.20;1.85;;;;;;;8.61;90.97;101237.13;4940963;28;99357;-69
2024/02/04 05:39:10;;;;;;;11.10;1.80;;;;;;;8.82;90.49;101245.50;4942045;28;97074;-67
2024/02/04 05:41:36;;;;;;;8.63;2.50;;;;;;;8.60;91.07;101238.00;4943400;28;97133;-68
2024/02/04 05:44:03;;;;;;;5.80;1.50;;;;;;;8.47;92.40;101243.56;4943476;28;98875;-68
2024/02/04 05:46:29;;;;;;;11.32;1.85;;;;;;;8.69;90.60;101244.88;4949198;28;99042;-68
2024/02/04 05:48:55;;;;;;;11.65;1.98;;;;;;;8.81;90.09;101252.53;4946691;28;97341;-68
2024/02/04 05:51:23;;;;;;;9.38;1.50;;;;;;;9.00;88.66;101264.44;4952356;28;97661;-68
2024/02/04 05:53:50;;;;;;;9.13;1.67;;;;;;;9.20;87.34;101264.88;4950346;28;98879;-68
2024/02/04 05:56:16;;;;;;;20.52;2.28;;;;;;;8.84;87.87;101255.13;4950012;28;98873;-68
2024/02/04 05:58:42;;;;;;;9.00;1.67;;;;;;;8.74;89.24;101251.78;4953897;28;96880;-68
2024/02/04 06:01:09;;;;;;;5.97;1.70;;;;;;;8.88;88.49;101256.78;4954089;28;98022;-68
2024/02/04 06:03:35;;;;;;;11.45;1.67;;;;;;;9.12;88.04;101251.00;4946201;28;99276;-69
2024/02/04 06:06:01;;;;;;;9.60;1.85;;;;;;;9.08;87.93;101259.00;4949755;28;99193;-69
2024/02/04 06:08:29;;;;;;;8.50;1.65;;;;;;;9.04;88.53;101255.59;4953746;28;97263;-69
2024/02/04 06:10:55;;;;;;;13.00;1.75;;;;;;;9.24;87.81;101267.47;4948474;28;97185;-70
2024/02/04 06:13:22;;;;;;;11.60;2.20;;;;;;;9.24;87.90;101268.34;4945021;28;98917;-69
2024/02/04 06:15:48;;;;;;;6.25;1.77;;;;;;;9.39;87.13;101259.19;4945792;28;98864;-72
2024/02/04 06:18:14;;;;;;;7.35;2.17;;;;;;;9.31;87.56;101255.88;4950429;28;98649;-70
2024/02/04 06:20:41;;;;;;;11.60;2.47;;;;;;;9.45;86.48;101267.00;4944239;28;97355;-69
2024/02/04 06:23:07;;;;;;;7.43;1.75;;;;;;;9.58;86.36;101271.09;4946741;28;99028;-70
2024/02/04 06:25:35;;;;;;;8.55;1.85;;;;;;;9.53;85.84;101263.25;4950630;28;98376;-71
2024/02/04 06:28:02;;;;;;;14.90;2.03;;;;;;;9.56;85.75;101262.34;4951546;28;97474;-71
2024/02/04 06:30:28;;;;;;;9.38;2.47;;;;;;;9.15;88.13;101261.47;4948724;28;97190;-69
2024/02/04 06:32:56;;;;;;;12.60;2.33;;;;;;;9.14;88.77;101270.28;4948368;28;98848;-70
2024/02/04 06:35:22;;;;;;;11.18;2.28;;;;;;;9.39;87.71;101260.06;4950619;28;101522;-70
2024/02/04 06:37:49;;;;;;;10.73;2.30;;;;;;;9.58;87.06;101271.09;4949304;28;97503;-70
2024/02/04 06:40:18;;;;;;;9.43;2.42;;;;;;;9.48;87.52;101266.91;4945962;28;97201;-70
2024/02/04 06:42:46;;;;;;;6.28;2.50;;;;;;;9.38;88.16;101278.59;4945422;28;98922;-70
2024/02/04 06:45:13;;;;;;;8.20;2.20;;;;;;;9.62;87.50;101278.03;4947990;28;98948;-70
2024/02/04 06:47:39;;;;;;;9.93;2.78;;;;;;;8.84;91.47;101280.59;4945654;28;96761;-70
2024/02/04 06:50:08;;;;;;;15.80;3.47;;;;;;;8.99;91.44;101285.56;4945444;28;96916;-71
2024/02/04 06:52:35;;;;;;;11.18;2.85;;;;;;;8.89;92.79;101282.25;4938921;28;99070;-70
2024/02/04 06:55:01;;;;;;;12.40;3.03;;;;;;;8.85;92.41;101283.22;4950443;28;100290;-70
2024/02/04 06:57:27;;;;;;;11.55;3.35;;;;;;;8.75;93.37;101274.59;4944241;28;97598;-71
2024/02/04 06:59:55;;;;;;;15.10;3.75;;;;;;;8.66;94.49;101266.88;4949098;28;97040;-70
2024/02/04 07:02:21;;;;;;;7.53;3.17;;;;;;;8.90;93.70;101268.16;4947317;28;99424;-71
2024/02/04 07:04:48;;;;;;;8.55;3.65;;;;;;;8.81;93.90;101263.06;4948114;28;99546;-72
2024/02/04 07:07:14;;;;;;;10.98;3.65;;;;;;;8.97;94.17;101261.88;4949876;28;98987;-70
2024/02/04 07:09:39;;;;;;;13.82;4.38;;;;;;;9.15;92.38;101260.63;4951662;28;97100;-70
2024/02/04 07:12:06;;;;;;;;;;;;;;;8.96;93.36;101268.03;4946839;28;99328;-70
2024/02/04 07:14:33;;;;;;;17.30;3.80;;;;;;;8.80;93.46;101263.97;4949999;28;99252;-70
2024/02/04 07:17:00;;;;;;;9.82;3.95;;;;;;;8.51;96.03;101261.03;4948768;28;97072;-70
2024/02/04 07:19:27;;;;;;;9.80;3.72;;;;;;;8.52;95.53;101252.25;4948005;28;97099;-71
2024/02/04 07:21:53;;;;;;;13.85;4.30;;;;;;;8.75;94.00;101244.75;4947873;28;98916;-70
2024/02/04 07:24:21;;;;;;;10.55;3.50;;;;;;;8.37;95.58;101235.84;4946445;28;98027;-70
2024/02/04 07:26:47;;;;;;;11.20;3.28;;;;;;;8.54;96.23;101230.22;4946017;28;96787;-71
2024/02/04 07:29:14;;;;;;;12.68;4.00;;;;;;;8.98;92.62;101237.25;4948117;28;96923;-71
2024/02/04 07:31:40;;;;;;;15.65;4.22;;;;;;;8.91;93.03;101245.31;4945432;28;99470;-72
2024/02/04 07:34:08;;;;;;;11.10;3.72;;;;;;;9.09;91.92;101244.94;4943704;28;98864;-71
2024/02/04 07:36:34;;;;;;;11.68;4.13;;;;;;;9.27;90.84;101239.25;4939832;28;98009;-71
2024/02/04 07:39:03;;;;;;;13.40;4.50;;;;;;;9.20;90.74;101248.19;4949560;28;97273;-70
2024/02/04 07:41:29;;;;;;;16.38;4.30;;;;;;;9.02;91.15;101238.91;4943326;28;101430;-70
2024/02/04 07:43:56;;;;;;;15.65;3.95;;;;;;;9.38;89.97;101220.56;4946443;28;98815;-70
2024/02/04 07:46:22;;;;;;;12.70;3.65;;;;;;;8.73;92.98;101222.81;4949357;28;98896;-70
2024/02/04 07:48:49;;;;;;;10.88;3.90;;;;;;;9.13;91.29;101213.19;4946123;28;98530;-71
2024/02/04 07:51:16;;;;;;;12.75;4.30;;;;;;;9.28;90.43;101214.63;4940064;28;98925;-71
2024/02/04 07:53:43;;;;;;;16.00;4.93;;;;;;;9.35;90.00;101197.75;4943549;28;98782;-70
2024/02/04 07:56:10;;;;;;;10.98;3.55;;;;;;;9.31;89.87;101193.47;4939509;28;96895;-69
2024/02/04 07:58:36;;;;;;;10.52;4.07;;;;;;;9.48;89.49;101188.66;4942023;28;97195;-70
2024/02/04 08:01:03;;;;;;;16.95;4.22;;;;;;;9.54;89.04;101195.53;4940231;28;99499;-70
2024/02/04 08:03:30;;;;;;;14.13;4.07;;;;;;;9.75;87.90;101200.31;4944531;28;99131;-71
2024/02/04 08:05:56;;;;;;;11.00;4.57;;;;;;;9.88;87.34;101193.81;4944034;28;97359;-70
2024/02/04 08:08:24;;;;;;;13.95;3.53;;;;;;;9.81;87.35;101202.78;4944490;28;97448;-68
2024/02/04 08:10:50;;;;;;;17.35;3.55;;;;;;;9.97;86.17;101190.06;4945464;28;98075;-69
2024/02/04 08:13:17;;;;;;;13.02;3.90;;;;;;;9.35;89.63;101196.88;4934276;28;97988;-69
2024/02/04 08:15:43;;;;;;;12.65;4.25;;;;;;;9.19;89.95;101191.06;4943414;28;98729;-71
2024/02/04 08:18:09;;;;;;;14.85;3.92;;;;;;;9.62;88.58;101190.94;4942071;28;98427;-70
2024/02/04 08:20:36;;;;;;;13.05;3.08;;;;;;;9.93;85.64;101185.75;4940303;28;99618;-71
2024/02/04 08:23:02;;;;;;;16.05;3.80;;;;;;;9.85;86.75;101185.94;4939338;28;101500;-71
2024/02/04 08:25:30;;;;;;;18.17;3.28;;;;;;;9.56;86.82;101191.97;4937602;28;97699;-71
2024/02/04 08:27:58;;;;;;;7.63;3.22;;;;;;;9.76;86.99;101196.75;4945329;28;96884;-71
2024/02/04 08:30:25;;;;;;;8.90;3.33;;;;;;;10.09;85.03;101183.59;4940123;28;99378;-71
2024/02/04 08:32:51;;;;;;;9.52;2.58;;;;;;;9.88;83.33;101177.97;4945937;28;97537;-70
2024/02/04 08:35:17;;;;;;;11.93;2.72;;;;;;;10.01;83.49;101170.59;4946183;28;96820;-71
2024/02/04 08:37:44;;;;;;;11.05;2.75;;;;;;;9.96;82.57;101173.38;4945981;28;97848;-71
2024/02/04 08:40:11;;;;;;;12.45;2.70;;;;;;;10.13;82.61;101170.25;4940864;28;98437;-73
2024/02/04 08:42:40;;;;;;;14.88;3.40;;;;;;;10.28;82.02;101167.25;4945863;28;98966;-76
2024/02/04 08:45:07;;;;;;;13.68;2.35;;;;;;;10.23;81.07;101155.94;4945580;28;96781;-71
2024/02/04 08:47:34;;;;;;;14.68;2.70;;;;;;;10.35;80.37;101160.88;4945433;28;96949;-71
2024/02/04 08:50:00;;;;;;;14.23;2.67;;;;;;;10.39;79.51;101151.09;4946201;28;98991;-70
2024/02/04 08:52:28;;;;;;;11.13;2.75;;;;;;;10.09;81.37;101162.47;4942922;28;101297;-71
2024/02/04 08:54:54;;;;;;;10.10;2.13;;;;;;;9.71;83.07;101160.84;4948447;28;96743;-72
2024/02/04 08:57:21;;;;;;;10.20;2.30;;;;;;;9.84;82.44;101164.91;4943709;28;97083;-71
2024/02/04 08:59:49;;;;;;;9.00;2.00;;;;;;;9.84;83.22;101159.63;4945847;28;98851;-70
2024/02/04 09:02:15;;;;;;;14.45;2.10;;;;;;;9.62;83.01;101161.94;4938714;28;98835;-70
2024/02/04 09:04:42;;;;;;;13.60;2.45;;;;;;;9.76;83.06;101164.22;4944225;28;96897;-70
2024/02/04 09:07:09;;;;;;;11.50;1.67;;;;;;;9.92;82.59;101154.97;4945117;28;98636;-70
2024/02/04 09:09:35;;;;;;;11.52;2.45;;;;;;;10.20;81.55;101150.75;4946906;28;98858;-70
2024/02/04 09:12:01;;;;;;;18.23;2.03;;;;;;;10.11;80.97;101150.09;4944383;28;98809;-71
2024/02/04 09:14:28;;;;;;;14.88;2.78;;;;;;;9.99;81.37;101149.50;4944636;28;97978;-71
2024/02/04 09:16:58;;;;;;;10.63;2.83;;;;;;;10.05;81.03;101156.38;4937157;28;99508;-71
2024/02/04 09:19:25;;;;;;;9.52;1.90;;;;;;;9.75;82.37;101139.59;4926723;28;99211;-72
2024/02/04 09:21:51;;;;;;;8.85;2.35;;;;;;;9.77;81.82;101145.72;4928525;28;100349;-71
2024/02/04 09:24:18;;;;;;;11.88;1.55;;;;;;;9.68;82.38;101143.28;4936792;28;96765;-70
2024/02/04 09:26:44;;;;;;;10.98;1.90;;;;;;;10.10;81.10;101141.31;4948426;28;96984;-70
2024/02/04 09:29:10;;;;;;;7.88;1.60;;;;;;;9.79;81.34;101146.53;4950400;28;98011;-70
2024/02/04 09:31:40;;;;;;;11.27;1.85;;;;;;;9.86;81.12;101145.47;4947397;28;98818;-72
2024/02/04 09:34:08;;;;;;;7.88;1.42;;;;;;;10.07;80.43;101162.50;4950191;28;97731;-71
2024/02/04 09:36:34;;;;;;;12.10;1.88;;;;;;;10.49;78.88;101151.72;4936667;28;97826;-70
2024/02/04 09:39:01;;;;;;;12.15;1.83;;;;;;;10.71;77.28;101148.38;4945876;28;97591;-70
2024/02/04 09:41:27;;;;;;;11.00;1.65;;;;;;;10.33;78.43;101149.50;4946663;28;98955;-72
2024/02/04 09:43:54;;;;;;;10.13;1.85;;;;;;;10.32;77.68;101146.88;4946962;28;97222;-71
2024/02/04 09:46:21;;;;;;;14.80;2.25;;;;;;;10.33;77.72;101144.22;4949092;28;96871;-70
2024/02/04 09:48:50;;;;;;;11.85;1.50;;;;;;;10.50;77.00;101137.59;4945148;28;99003;-70
2024/02/04 09:51:17;;;;;;;9.02;1.55;;;;;;;10.18;77.29;101130.53;4947018;28;99286;-70
2024/02/04 09:53:45;;;;;;;8.30;1.52;;;;;;;10.31;76.44;101135.44;4950367;28;96903;-70
2024/02/04 09:56:12;;;;;;;8.25;1.60;;;;;;;10.53;76.05;101142.78;4948367;28;96903;-70
2024/02/04 09:58:39;;;;;;;9.10;1.88;;;;;;;10.64;75.12;101133.59;4947454;28;100341;-70
2024/02/04 10:01:08;;;;;;;13.75;1.35;;;;;;;10.98;74.67;101129.94;4938996;28;98830;-70
2024/02/04 10:03:34;;;;;;;10.52;1.60;;;;;;;10.78;73.95;101125.28;4940922;28;97447;-71
2024/02/04 10:06:01;;;;;;;7.13;1.77;;;;;;;10.54;74.67;101129.53;4949627;28;97223;-70
2024/02/04 10:08:29;;;;;;;7.65;1.52;;;;;;;10.68;74.20;101131.75;4947060;28;97725;-70
2024/02/04 10:10:55;;;;;;;8.32;1.20;;;;;;;10.24;75.57;101125.13;4945725;28;99460;-70
2024/02/04 10:13:22;;;;;;;10.85;1.05;;;;;;;10.36;74.65;101120.34;4945929;28;97343;-71
2024/02/04 10:15:50;;;;;;;8.95;1.15;;;;;;;10.72;73.39;101123.69;4950096;28;97521;-69
2024/02/04 10:18:18;;;;;;;6.82;1.67;;;;;;;11.13;71.64;101122.41;4940693;28;98884;-70
2024/02/04 10:20:44;;;;;;;5.93;0.98;;;;;;;11.52;69.66;101112.31;4936795;28;98848;-70
2024/02/04 10:23:11;;;;;;;6.10;1.08;;;;;;;11.36;68.92;101105.78;4948250;28;97054;-70
2024/02/04 10:25:38;;;;;;;12.63;1.40;;;;;;;11.39;68.56;101113.63;4943275;28;98044;-70
2024/02/04 10:28:05;;;;;;;7.10;1.20;;;;;;;11.12;69.55;101111.88;4943492;28;98829;-70
2024/02/04 10:30:32;;;;;;;7.90;1.30;;;;;;;10.68;71.92;101121.19;4947582;28;102684;-70
2024/02/04 10:32:58;;;;;;;6.45;1.25;;;;;;;11.31;69.42;101104.19;4941822;28;98825;-71
2024/02/04 10:35:25;;;;;;;7.00;0.90;;;;;;;11.07;70.04;101097.94;4943451;28;98912;-70
2024/02/04 10:37:51;;;;;;;10.77;1.00;;;;;;;11.24;69.67;101085.03;4945129;28;97932;-76
2024/02/04 10:40:18;;;;;;;6.70;1.13;;;;;;;11.18;69.67;101090.50;4945860;28;98803;-76
2024/02/04 10:42:47;;;;;;;6.72;1.17;;;;;;;10.68;70.59;101081.53;4947972;28;96830;-76
2024/02/04 10:45:17;;;;;;;11.13;1.00;;;;;;;10.55;70.79;101086.34;4946853;28;98674;-76
2024/02/04 10:47:51;;;;;;;5.28;0.82;;;;;;;10.55;71.23;101091.63;4944316;28;100124;-77
2024/02/04 10:50:18;;;;;;;7.53;1.35;;;;;;;10.30;72.70;101095.91;4946945;28;102289;-77
2024/02/04 10:52:47;;;;;;;5.05;1.38;;;;;;;10.82;70.95;101091.69;4945510;28;96883;-78
2024/02/04 10:55:16;;;;;;;10.48;1.27;;;;;;;10.93;69.96;101085.16;4945696;28;97374;-77
2024/02/04 10:57:42;;;;;;;8.85;1.13;;;;;;;10.88;70.62;101075.63;4941950;28;99265;-70
2024/02/04 11:00:11;;;;;;;11.80;1.90;;;;;;;10.87;70.15;101079.19;4945120;28;98183;-71
2024/02/04 11:02:39;;;;;;;7.78;1.73;;;;;;;11.48;68.29;101080.72;4943774;28;97119;-72
2024/02/04 11:05:08;;;;;;;10.15;1.13;;;;;;;11.29;67.77;101069.84;4944006;28;99451;-70
2024/02/04 11:07:35;;;;;;;10.32;1.88;;;;;;;10.88;69.99;101075.63;4940749;28;99711;-70
2024/02/04 11:10:02;;;;;;;9.85;1.70;;;;;;;10.85;69.73;101086.28;4947392;28;98851;-70
2024/02/04 11:12:31;;;;;;;8.02;1.27;;;;;;;11.02;69.99;101073.44;4947385;28;97439;-70
2024/02/04 11:15:01;;;;;;;8.95;1.33;;;;;;;11.10;69.72;101066.94;4948885;28;97148;-76
2024/02/04 11:17:53;;;;;;;12.48;1.50;;;;;;;10.92;69.89;101091.34;4946702;28;97683;-76
2024/02/04 11:20:42;;;;;;;7.32;1.45;;;;;;;11.07;69.12;101072.34;4933913;28;98920;-77
2024/02/04 11:23:30;;;;;;;9.23;2.20;;;;;;;11.05;69.09;101068.03;4942077;28;96855;-75